sensor_id;sensor_type;location;lat;lon;timestamp;temperature;humidity
72277;SHT30;61204;49.980;8.358;2023-02-28T00:00:36;0.16;66.01
72277;SHT30;61204;49.980;8.358;2023-02-28T00:03:02;0.17;66.09
72277;SHT30;61204;49.980;8.358;2023-02-28T00:05:28;0.31;65.49
72277;SHT30;61204;49.980;8.358;2023-02-28T00:07:56;0.34;65.53
72277;SHT30;61204;49.980;8.358;2023-02-28T00:10:24;0.29;65.64
72277;SHT30;61204;49.980;8.358;2023-02-28T00:12:53;0.40;65.54
72277;SHT30;61204;49.980;8.358;2023-02-28T00:15:22;0.47;65.53
72277;SHT30;61204;49.980;8.358;2023-02-28T00:17:51;0.53;65.39
72277;SHT30;61204;49.980;8.358;2023-02-28T00:20:17;0.53;65.36
72277;SHT30;61204;49.980;8.358;2023-02-28T00:22:45;0.46;65.71
72277;SHT30;61204;49.980;8.358;2023-02-28T00:25:16;0.44;65.88
72277;SHT30;61204;49.980;8.358;2023-02-28T00:27:46;0.37;66.31
72277;SHT30;61204;49.980;8.358;2023-02-28T00:30:18;0.46;66.22
72277;SHT30;61204;49.980;8.358;2023-02-28T00:32:45;0.40;66.57
72277;SHT30;61204;49.980;8.358;2023-02-28T00:35:11;0.41;66.72
72277;SHT30;61204;49.980;8.358;2023-02-28T00:37:38;0.43;66.65
72277;SHT30;61204;49.980;8.358;2023-02-28T00:40:04;0.47;66.74
72277;SHT30;61204;49.980;8.358;2023-02-28T00:42:32;0.47;66.78
72277;SHT30;61204;49.980;8.358;2023-02-28T00:44:58;0.51;67.08
72277;SHT30;61204;49.980;8.358;2023-02-28T00:47:24;0.56;67.23
72277;SHT30;61204;49.980;8.358;2023-02-28T00:49:49;0.51;67.34
72277;SHT30;61204;49.980;8.358;2023-02-28T00:52:15;0.54;67.38
72277;SHT30;61204;49.980;8.358;2023-02-28T00:54:40;0.54;67.19
72277;SHT30;61204;49.980;8.358;2023-02-28T00:57:06;0.60;67.04
72277;SHT30;61204;49.980;8.358;2023-02-28T00:59:31;0.64;66.95
72277;SHT30;61204;49.980;8.358;2023-02-28T01:01:57;0.62;67.12
72277;SHT30;61204;49.980;8.358;2023-02-28T01:04:22;0.57;67.65
72277;SHT30;61204;49.980;8.358;2023-02-28T01:06:47;0.54;67.91
72277;SHT30;61204;49.980;8.358;2023-02-28T01:09:13;0.51;68.26
72277;SHT30;61204;49.980;8.358;2023-02-28T01:11:39;0.46;68.88
72277;SHT30;61204;49.980;8.358;2023-02-28T01:14:06;0.33;69.49
72277;SHT30;61204;49.980;8.358;2023-02-28T01:16:32;0.27;70.04
72277;SHT30;61204;49.980;8.358;2023-02-28T01:18:58;0.23;70.54
72277;SHT30;61204;49.980;8.358;2023-02-28T01:21:25;0.22;70.68
72277;SHT30;61204;49.980;8.358;2023-02-28T01:23:51;0.10;71.02
72277;SHT30;61204;49.980;8.358;2023-02-28T01:26:18;0.06;71.73
72277;SHT30;61204;49.980;8.358;2023-02-28T01:28:46;-0.02;72.12
72277;SHT30;61204;49.980;8.358;2023-02-28T01:31:12;-0.16;72.60
72277;SHT30;61204;49.980;8.358;2023-02-28T01:33:38;-0.28;73.69
72277;SHT30;61204;49.980;8.358;2023-02-28T01:36:07;-0.34;74.16
72277;SHT30;61204;49.980;8.358;2023-02-28T01:38:35;-0.36;74.33
72277;SHT30;61204;49.980;8.358;2023-02-28T01:41:04;-0.44;75.02
72277;SHT30;61204;49.980;8.358;2023-02-28T01:43:51;-0.52;75.30
72277;SHT30;61204;49.980;8.358;2023-02-28T01:46:22;-0.60;75.69
72277;SHT30;61204;49.980;8.358;2023-02-28T01:48:52;-0.68;76.33
72277;SHT30;61204;49.980;8.358;2023-02-28T01:52:10;-0.73;76.68
72277;SHT30;61204;49.980;8.358;2023-02-28T01:54:30;-0.83;76.91
72277;SHT30;61204;49.980;8.358;2023-02-28T01:57:07;-0.83;77.88
72277;SHT30;61204;49.980;8.358;2023-02-28T01:59:45;-0.85;78.09
72277;SHT30;61204;49.980;8.358;2023-02-28T02:02:18;-0.88;78.05
72277;SHT30;61204;49.980;8.358;2023-02-28T02:05:21;-0.94;78.21
72277;SHT30;61204;49.980;8.358;2023-02-28T02:07:49;-0.98;78.57
72277;SHT30;61204;49.980;8.358;2023-02-28T02:10:29;-0.97;78.31
72277;SHT30;61204;49.980;8.358;2023-02-28T02:18:48;-1.04;79.01
72277;SHT30;61204;49.980;8.358;2023-02-28T02:27:22;-1.16;79.80
72277;SHT30;61204;49.980;8.358;2023-02-28T02:36:02;-1.17;80.23
72277;SHT30;61204;49.980;8.358;2023-02-28T02:38:52;-1.28;80.71
72277;SHT30;61204;49.980;8.358;2023-02-28T02:41:35;-1.31;81.03
72277;SHT30;61204;49.980;8.358;2023-02-28T02:44:22;-1.44;81.70
72277;SHT30;61204;49.980;8.358;2023-02-28T02:46:59;-1.44;81.98
72277;SHT30;61204;49.980;8.358;2023-02-28T02:49:32;-1.50;81.93
72277;SHT30;61204;49.980;8.358;2023-02-28T02:52:04;-1.49;82.12
72277;SHT30;61204;49.980;8.358;2023-02-28T02:54:41;-1.53;81.92
72277;SHT30;61204;49.980;8.358;2023-02-28T02:57:13;-1.47;82.68
72277;SHT30;61204;49.980;8.358;2023-02-28T02:59:43;-1.43;82.09
72277;SHT30;61204;49.980;8.358;2023-02-28T03:02:12;-1.46;82.22
72277;SHT30;61204;49.980;8.358;2023-02-28T03:04:45;-1.47;82.16
72277;SHT30;61204;49.980;8.358;2023-02-28T03:07:16;-1.50;82.26
72277;SHT30;61204;49.980;8.358;2023-02-28T03:09:53;-1.57;82.23
72277;SHT30;61204;49.980;8.358;2023-02-28T03:12:25;-1.57;81.89
72277;SHT30;61204;49.980;8.358;2023-02-28T03:15:19;-1.49;82.04
72277;SHT30;61204;49.980;8.358;2023-02-28T03:20:27;-1.53;81.24
72277;SHT30;61204;49.980;8.358;2023-02-28T03:23:19;-1.60;81.54
72277;SHT30;61204;49.980;8.358;2023-02-28T03:32:04;-1.66;81.16
72277;SHT30;61204;49.980;8.358;2023-02-28T03:34:48;-1.57;80.87
72277;SHT30;61204;49.980;8.358;2023-02-28T03:37:22;-1.59;80.84
72277;SHT30;61204;49.980;8.358;2023-02-28T03:39:56;-1.50;80.72
72277;SHT30;61204;49.980;8.358;2023-02-28T03:42:31;-1.54;80.77
72277;SHT30;61204;49.980;8.358;2023-02-28T03:45:18;-1.59;80.86
72277;SHT30;61204;49.980;8.358;2023-02-28T03:50:24;-1.64;80.82
72277;SHT30;61204;49.980;8.358;2023-02-28T03:52:58;-1.70;80.93
72277;SHT30;61204;49.980;8.358;2023-02-28T03:55:33;-1.71;80.99
72277;SHT30;61204;49.980;8.358;2023-02-28T04:00:50;-1.72;81.40
72277;SHT30;61204;49.980;8.358;2023-02-28T04:03:22;-1.70;80.95
72277;SHT30;61204;49.980;8.358;2023-02-28T04:05:52;-1.68;80.76
72277;SHT30;61204;49.980;8.358;2023-02-28T04:08:19;-1.53;80.62
72277;SHT30;61204;49.980;8.358;2023-02-28T04:10:53;-1.50;79.97
72277;SHT30;61204;49.980;8.358;2023-02-28T04:13:39;-1.53;79.67
72277;SHT30;61204;49.980;8.358;2023-02-28T04:16:09;-1.53;79.92
72277;SHT30;61204;49.980;8.358;2023-02-28T04:18:38;-1.60;79.87
72277;SHT30;61204;49.980;8.358;2023-02-28T04:21:05;-1.43;79.74
72277;SHT30;61204;49.980;8.358;2023-02-28T04:23:31;-1.47;79.87
72277;SHT30;61204;49.980;8.358;2023-02-28T04:25:59;-1.47;79.72
72277;SHT30;61204;49.980;8.358;2023-02-28T04:28:24;-1.60;80.18
72277;SHT30;61204;49.980;8.358;2023-02-28T04:30:56;-1.60;80.36
72277;SHT30;61204;49.980;8.358;2023-02-28T04:33:22;-1.60;80.57
72277;SHT30;61204;49.980;8.358;2023-02-28T04:35:47;-1.53;80.10
72277;SHT30;61204;49.980;8.358;2023-02-28T04:38:13;-1.53;79.93
72277;SHT30;61204;49.980;8.358;2023-02-28T04:40:38;-1.61;80.32
72277;SHT30;61204;49.980;8.358;2023-02-28T04:43:04;-1.60;80.10
72277;SHT30;61204;49.980;8.358;2023-02-28T04:45:29;-1.64;80.37
72277;SHT30;61204;49.980;8.358;2023-02-28T04:47:59;-1.64;79.94
72277;SHT30;61204;49.980;8.358;2023-02-28T04:50:25;-1.68;80.32
72277;SHT30;61204;49.980;8.358;2023-02-28T04:52:50;-1.71;80.13
72277;SHT30;61204;49.980;8.358;2023-02-28T04:55:15;-1.64;79.88
72277;SHT30;61204;49.980;8.358;2023-02-28T04:57:41;-1.70;79.88
72277;SHT30;61204;49.980;8.358;2023-02-28T05:00:09;-1.67;79.85
72277;SHT30;61204;49.980;8.358;2023-02-28T05:02:37;-1.64;79.73
72277;SHT30;61204;49.980;8.358;2023-02-28T05:05:03;-1.63;79.70
72277;SHT30;61204;49.980;8.358;2023-02-28T05:07:29;-1.67;79.33
72277;SHT30;61204;49.980;8.358;2023-02-28T05:09:54;-1.59;79.18
72277;SHT30;61204;49.980;8.358;2023-02-28T05:12:20;-1.64;79.01
72277;SHT30;61204;49.980;8.358;2023-02-28T05:14:45;-1.66;79.47
72277;SHT30;61204;49.980;8.358;2023-02-28T05:17:11;-1.63;79.21
72277;SHT30;61204;49.980;8.358;2023-02-28T05:19:36;-1.68;79.30
72277;SHT30;61204;49.980;8.358;2023-02-28T05:22:02;-1.64;79.19
72277;SHT30;61204;49.980;8.358;2023-02-28T05:24:27;-1.68;79.62
72277;SHT30;61204;49.980;8.358;2023-02-28T05:26:55;-1.64;79.60
72277;SHT30;61204;49.980;8.358;2023-02-28T05:29:21;-1.64;79.40
72277;SHT30;61204;49.980;8.358;2023-02-28T05:31:47;-1.61;79.30
72277;SHT30;61204;49.980;8.358;2023-02-28T05:34:15;-1.67;79.44
72277;SHT30;61204;49.980;8.358;2023-02-28T05:36:41;-1.71;79.45
72277;SHT30;61204;49.980;8.358;2023-02-28T05:39:07;-1.72;79.56
72277;SHT30;61204;49.980;8.358;2023-02-28T05:41:37;-1.75;79.40
72277;SHT30;61204;49.980;8.358;2023-02-28T05:44:04;-1.68;79.14
72277;SHT30;61204;49.980;8.358;2023-02-28T05:46:29;-1.64;78.86
72277;SHT30;61204;49.980;8.358;2023-02-28T05:48:55;-1.67;78.45
72277;SHT30;61204;49.980;8.358;2023-02-28T05:51:22;-1.72;78.78
72277;SHT30;61204;49.980;8.358;2023-02-28T05:53:48;-1.75;79.28
72277;SHT30;61204;49.980;8.358;2023-02-28T05:56:14;-1.81;78.96
72277;SHT30;61204;49.980;8.358;2023-02-28T05:58:40;-1.82;78.98
72277;SHT30;61204;49.980;8.358;2023-02-28T06:01:33;-1.82;78.98
72277;SHT30;61204;49.980;8.358;2023-02-28T06:03:59;-1.84;78.99
72277;SHT30;61204;49.980;8.358;2023-02-28T06:06:26;-1.82;78.61
72277;SHT30;61204;49.980;8.358;2023-02-28T06:08:52;-1.79;78.80
72277;SHT30;61204;49.980;8.358;2023-02-28T06:11:17;-1.78;78.77
72277;SHT30;61204;49.980;8.358;2023-02-28T06:13:44;-1.88;78.63
72277;SHT30;61204;49.980;8.358;2023-02-28T06:16:11;-1.85;78.66
72277;SHT30;61204;49.980;8.358;2023-02-28T06:18:39;-1.78;78.54
72277;SHT30;61204;49.980;8.358;2023-02-28T06:21:04;-1.77;78.38
72277;SHT30;61204;49.980;8.358;2023-02-28T06:23:30;-1.79;78.63
72277;SHT30;61204;49.980;8.358;2023-02-28T06:25:55;-1.78;78.54
72277;SHT30;61204;49.980;8.358;2023-02-28T06:28:24;-1.74;78.36
72277;SHT30;61204;49.980;8.358;2023-02-28T06:30:51;-1.81;78.47
72277;SHT30;61204;49.980;8.358;2023-02-28T06:33:17;-1.72;78.24
72277;SHT30;61204;49.980;8.358;2023-02-28T06:35:51;-1.57;77.90
72277;SHT30;61204;49.980;8.358;2023-02-28T06:38:18;-1.40;77.39
72277;SHT30;61204;49.980;8.358;2023-02-28T06:40:44;-1.28;76.70
72277;SHT30;61204;49.980;8.358;2023-02-28T06:43:10;-1.20;76.68
72277;SHT30;61204;49.980;8.358;2023-02-28T06:45:43;-1.08;76.40
72277;SHT30;61204;49.980;8.358;2023-02-28T06:48:08;-0.78;75.48
72277;SHT30;61204;49.980;8.358;2023-02-28T06:50:35;-0.52;74.30
72277;SHT30;61204;49.980;8.358;2023-02-28T06:53:03;-0.21;73.70
72277;SHT30;61204;49.980;8.358;2023-02-28T06:55:28;0.19;72.09
72277;SHT30;61204;49.980;8.358;2023-02-28T06:57:53;0.43;71.16
72277;SHT30;61204;49.980;8.358;2023-02-28T07:00:22;0.69;70.19
72277;SHT30;61204;49.980;8.358;2023-02-28T07:02:48;0.84;69.85
72277;SHT30;61204;49.980;8.358;2023-02-28T07:05:13;1.19;68.31
72277;SHT30;61204;49.980;8.358;2023-02-28T07:07:39;1.17;66.94
72277;SHT30;61204;49.980;8.358;2023-02-28T07:10:12;1.34;67.41
72277;SHT30;61204;49.980;8.358;2023-02-28T07:12:38;1.57;66.38
72277;SHT30;61204;49.980;8.358;2023-02-28T07:15:05;1.89;64.96
72277;SHT30;61204;49.980;8.358;2023-02-28T07:17:31;2.01;64.03
72277;SHT30;61204;49.980;8.358;2023-02-28T07:19:56;1.89;63.44
72277;SHT30;61204;49.980;8.358;2023-02-28T07:22:21;2.07;63.70
72277;SHT30;61204;49.980;8.358;2023-02-28T07:24:47;2.26;64.01
72277;SHT30;61204;49.980;8.358;2023-02-28T07:27:15;2.30;62.22
72277;SHT30;61204;49.980;8.358;2023-02-28T07:29:51;2.79;63.03
72277;SHT30;61204;49.980;8.358;2023-02-28T07:32:19;2.95;61.04
72277;SHT30;61204;49.980;8.358;2023-02-28T07:34:45;3.05;60.33
72277;SHT30;61204;49.980;8.358;2023-02-28T07:37:11;3.26;59.41
72277;SHT30;61204;49.980;8.358;2023-02-28T07:39:36;3.35;58.03
72277;SHT30;61204;49.980;8.358;2023-02-28T07:42:05;3.28;59.58
72277;SHT30;61204;49.980;8.358;2023-02-28T07:44:34;2.99;59.12
72277;SHT30;61204;49.980;8.358;2023-02-28T07:47:00;3.31;58.12
72277;SHT30;61204;49.980;8.358;2023-02-28T07:49:26;3.40;58.15
72277;SHT30;61204;49.980;8.358;2023-02-28T07:51:51;3.65;56.45
72277;SHT30;61204;49.980;8.358;2023-02-28T07:54:19;3.95;57.09
72277;SHT30;61204;49.980;8.358;2023-02-28T07:56:44;3.95;55.60
72277;SHT30;61204;49.980;8.358;2023-02-28T07:59:10;3.68;55.71
72277;SHT30;61204;49.980;8.358;2023-02-28T08:01:35;3.65;56.28
72277;SHT30;61204;49.980;8.358;2023-02-28T08:04:00;3.87;55.25
72277;SHT30;61204;49.980;8.358;2023-02-28T08:06:26;3.55;55.02
72277;SHT30;61204;49.980;8.358;2023-02-28T08:08:52;4.16;54.26
72277;SHT30;61204;49.980;8.358;2023-02-28T08:11:18;4.07;53.45
72277;SHT30;61204;49.980;8.358;2023-02-28T08:13:44;4.30;54.22
72277;SHT30;61204;49.980;8.358;2023-02-28T08:16:12;4.33;52.64
72277;SHT30;61204;49.980;8.358;2023-02-28T08:18:42;4.34;52.65
72277;SHT30;61204;49.980;8.358;2023-02-28T08:21:11;4.30;52.75
72277;SHT30;61204;49.980;8.358;2023-02-28T08:23:37;3.83;53.80
72277;SHT30;61204;49.980;8.358;2023-02-28T08:26:03;3.37;54.98
72277;SHT30;61204;49.980;8.358;2023-02-28T08:28:29;3.00;55.52
72277;SHT30;61204;49.980;8.358;2023-02-28T08:30:55;2.84;57.07
72277;SHT30;61204;49.980;8.358;2023-02-28T08:33:22;2.82;56.72
72277;SHT30;61204;49.980;8.358;2023-02-28T08:35:56;2.84;57.17
72277;SHT30;61204;49.980;8.358;2023-02-28T08:38:23;3.09;56.56
72277;SHT30;61204;49.980;8.358;2023-02-28T08:40:49;3.17;55.96
72277;SHT30;61204;49.980;8.358;2023-02-28T08:43:14;3.19;55.56
72277;SHT30;61204;49.980;8.358;2023-02-28T08:45:40;3.23;55.63
72277;SHT30;61204;49.980;8.358;2023-02-28T08:48:05;3.37;55.13
72277;SHT30;61204;49.980;8.358;2023-02-28T08:50:31;3.48;54.10
72277;SHT30;61204;49.980;8.358;2023-02-28T08:52:56;3.57;54.21
72277;SHT30;61204;49.980;8.358;2023-02-28T08:55:22;3.62;53.41
72277;SHT30;61204;49.980;8.358;2023-02-28T08:57:47;3.65;52.66
72277;SHT30;61204;49.980;8.358;2023-02-28T09:00:13;4.20;52.93
72277;SHT30;61204;49.980;8.358;2023-02-28T09:02:40;4.41;50.61
72277;SHT30;61204;49.980;8.358;2023-02-28T09:05:08;4.40;49.07
72277;SHT30;61204;49.980;8.358;2023-02-28T09:07:33;4.11;49.15
72277;SHT30;61204;49.980;8.358;2023-02-28T09:09:59;4.68;48.47
72277;SHT30;61204;49.980;8.358;2023-02-28T09:12:26;5.28;46.58
72277;SHT30;61204;49.980;8.358;2023-02-28T09:14:53;5.28;47.04
72277;SHT30;61204;49.980;8.358;2023-02-28T09:17:22;5.19;46.64
72277;SHT30;61204;49.980;8.358;2023-02-28T09:19:49;5.12;46.40
72277;SHT30;61204;49.980;8.358;2023-02-28T09:22:15;5.03;46.48
72277;SHT30;61204;49.980;8.358;2023-02-28T09:24:42;5.32;45.28
72277;SHT30;61204;49.980;8.358;2023-02-28T09:27:09;5.79;46.26
72277;SHT30;61204;49.980;8.358;2023-02-28T09:29:35;5.63;44.52
72277;SHT30;61204;49.980;8.358;2023-02-28T09:32:01;5.35;43.60
72277;SHT30;61204;49.980;8.358;2023-02-28T09:34:27;5.59;43.80
72277;SHT30;61204;49.980;8.358;2023-02-28T09:36:55;6.30;42.67
72277;SHT30;61204;49.980;8.358;2023-02-28T09:39:21;6.87;42.28
72277;SHT30;61204;49.980;8.358;2023-02-28T09:41:51;6.82;41.76
72277;SHT30;61204;49.980;8.358;2023-02-28T09:47:13;7.23;40.76
72277;SHT30;61204;49.980;8.358;2023-02-28T09:49:46;7.07;40.36
72277;SHT30;61204;49.980;8.358;2023-02-28T09:52:22;6.82;41.29
72277;SHT30;61204;49.980;8.358;2023-02-28T09:54:55;7.82;38.46
72277;SHT30;61204;49.980;8.358;2023-02-28T09:57:40;6.68;40.24
72277;SHT30;61204;49.980;8.358;2023-02-28T10:00:18;7.47;39.75
72277;SHT30;61204;49.980;8.358;2023-02-28T10:05:30;5.93;41.59
72277;SHT30;61204;49.980;8.358;2023-02-28T10:11:02;7.40;39.41
72277;SHT30;61204;49.980;8.358;2023-02-28T10:13:56;7.41;40.28
72277;SHT30;61204;49.980;8.358;2023-02-28T10:16:50;7.24;39.90
72277;SHT30;61204;49.980;8.358;2023-02-28T10:19:40;7.23;39.80
72277;SHT30;61204;49.980;8.358;2023-02-28T10:24:54;6.30;41.02
72277;SHT30;61204;49.980;8.358;2023-02-28T10:27:31;6.58;40.75
72277;SHT30;61204;49.980;8.358;2023-02-28T10:30:00;6.25;41.39
72277;SHT30;61204;49.980;8.358;2023-02-28T10:32:37;5.75;43.41
72277;SHT30;61204;49.980;8.358;2023-02-28T10:37:54;5.38;43.69
72277;SHT30;61204;49.980;8.358;2023-02-28T10:45:34;7.20;39.77
72277;SHT30;61204;49.980;8.358;2023-02-28T10:48:10;6.99;39.95
72277;SHT30;61204;49.980;8.358;2023-02-28T10:51:16;8.01;37.36
72277;SHT30;61204;49.980;8.358;2023-02-28T10:53:51;6.82;39.52
72277;SHT30;61204;49.980;8.358;2023-02-28T10:56:21;5.34;42.14
72277;SHT30;61204;49.980;8.358;2023-02-28T11:01:40;5.28;41.47
72277;SHT30;61204;49.980;8.358;2023-02-28T11:04:33;4.78;42.76
72277;SHT30;61204;49.980;8.358;2023-02-28T11:07:18;5.83;41.45
72277;SHT30;61204;49.980;8.358;2023-02-28T11:09:52;5.90;40.39
72277;SHT30;61204;49.980;8.358;2023-02-28T11:12:26;6.09;39.76
72277;SHT30;61204;49.980;8.358;2023-02-28T11:15:05;6.11;40.78
72277;SHT30;61204;49.980;8.358;2023-02-28T11:17:58;5.90;41.70
72277;SHT30;61204;49.980;8.358;2023-02-28T11:20:29;6.14;41.28
72277;SHT30;61204;49.980;8.358;2023-02-28T11:22:58;6.23;39.96
72277;SHT30;61204;49.980;8.358;2023-02-28T11:25:32;6.24;40.99
72277;SHT30;61204;49.980;8.358;2023-02-28T11:28:02;7.47;38.20
72277;SHT30;61204;49.980;8.358;2023-02-28T11:38:47;7.45;38.05
72277;SHT30;61204;49.980;8.358;2023-02-28T11:53:00;9.27;35.84
72277;SHT30;61204;49.980;8.358;2023-02-28T11:55:39;9.96;34.11
72277;SHT30;61204;49.980;8.358;2023-02-28T12:06:38;8.14;37.27
72277;SHT30;61204;49.980;8.358;2023-02-28T12:12:51;8.94;35.79
72277;SHT30;61204;49.980;8.358;2023-02-28T12:18:54;7.69;37.00
72277;SHT30;61204;49.980;8.358;2023-02-28T12:21:45;8.05;37.03
72277;SHT30;61204;49.980;8.358;2023-02-28T12:24:28;8.69;37.13
72277;SHT30;61204;49.980;8.358;2023-02-28T12:26:58;9.98;34.75
72277;SHT30;61204;49.980;8.358;2023-02-28T12:32:35;9.77;34.77
72277;SHT30;61204;49.980;8.358;2023-02-28T12:35:14;9.55;35.03
72277;SHT30;61204;49.980;8.358;2023-02-28T12:37:51;9.70;34.36
72277;SHT30;61204;49.980;8.358;2023-02-28T12:40:27;10.53;33.09
72277;SHT30;61204;49.980;8.358;2023-02-28T12:43:03;9.53;34.70
72277;SHT30;61204;49.980;8.358;2023-02-28T12:45:40;9.83;33.99
72277;SHT30;61204;49.980;8.358;2023-02-28T12:48:17;8.87;34.43
72277;SHT30;61204;49.980;8.358;2023-02-28T12:50:49;9.10;34.44
72277;SHT30;61204;49.980;8.358;2023-02-28T12:53:25;10.21;33.37
72277;SHT30;61204;49.980;8.358;2023-02-28T12:56:03;9.45;33.92
72277;SHT30;61204;49.980;8.358;2023-02-28T12:58:46;8.69;36.59
72277;SHT30;61204;49.980;8.358;2023-02-28T13:10:15;8.97;34.89
72277;SHT30;61204;49.980;8.358;2023-02-28T13:12:52;9.53;34.12
72277;SHT30;61204;49.980;8.358;2023-02-28T13:15:25;10.15;33.83
72277;SHT30;61204;49.980;8.358;2023-02-28T13:17:56;10.11;33.07
72277;SHT30;61204;49.980;8.358;2023-02-28T13:20:35;10.04;34.15
72277;SHT30;61204;49.980;8.358;2023-02-28T13:26:22;9.28;35.20
72277;SHT30;61204;49.980;8.358;2023-02-28T13:31:16;9.89;33.06
72277;SHT30;61204;49.980;8.358;2023-02-28T13:38:46;9.82;33.38
72277;SHT30;61204;49.980;8.358;2023-02-28T13:44:04;9.43;35.02
72277;SHT30;61204;49.980;8.358;2023-02-28T13:46:35;10.14;33.66
72277;SHT30;61204;49.980;8.358;2023-02-28T14:03:58;9.39;35.50
72277;SHT30;61204;49.980;8.358;2023-02-28T14:06:33;9.27;35.23
72277;SHT30;61204;49.980;8.358;2023-02-28T14:09:29;9.20;34.77
72277;SHT30;61204;49.980;8.358;2023-02-28T14:11:56;10.42;33.61
72277;SHT30;61204;49.980;8.358;2023-02-28T14:17:15;9.73;34.34
72277;SHT30;61204;49.980;8.358;2023-02-28T14:19:46;9.17;35.43
72277;SHT30;61204;49.980;8.358;2023-02-28T14:22:43;9.67;34.89
72277;SHT30;61204;49.980;8.358;2023-02-28T14:30:51;9.18;35.77
72277;SHT30;61204;49.980;8.358;2023-02-28T14:36:22;9.11;35.92
72277;SHT30;61204;49.980;8.358;2023-02-28T14:38:53;9.03;36.16
72277;SHT30;61204;49.980;8.358;2023-02-28T14:41:23;8.88;36.93
72277;SHT30;61204;49.980;8.358;2023-02-28T14:43:57;8.86;36.31
72277;SHT30;61204;49.980;8.358;2023-02-28T14:46:37;8.45;37.00
72277;SHT30;61204;49.980;8.358;2023-02-28T14:49:05;8.94;36.44
72277;SHT30;61204;49.980;8.358;2023-02-28T14:51:33;8.65;36.74
72277;SHT30;61204;49.980;8.358;2023-02-28T14:54:01;9.21;36.14
72277;SHT30;61204;49.980;8.358;2023-02-28T14:56:36;8.65;36.69
72277;SHT30;61204;49.980;8.358;2023-02-28T14:59:05;9.11;36.04
72277;SHT30;61204;49.980;8.358;2023-02-28T15:01:48;9.25;35.98
72277;SHT30;61204;49.980;8.358;2023-02-28T15:04:25;9.63;35.31
72277;SHT30;61204;49.980;8.358;2023-02-28T15:07:14;9.66;35.63
72277;SHT30;61204;49.980;8.358;2023-02-28T15:09:40;8.73;36.93
72277;SHT30;61204;49.980;8.358;2023-02-28T15:12:06;8.37;37.51
72277;SHT30;61204;49.980;8.358;2023-02-28T15:14:34;8.49;37.41
72277;SHT30;61204;49.980;8.358;2023-02-28T15:17:08;8.07;37.88
72277;SHT30;61204;49.980;8.358;2023-02-28T15:19:48;7.66;39.28
72277;SHT30;61204;49.980;8.358;2023-02-28T15:22:29;7.44;39.78
72277;SHT30;61204;49.980;8.358;2023-02-28T15:25:02;7.59;39.84
72277;SHT30;61204;49.980;8.358;2023-02-28T15:27:32;7.62;39.82
72277;SHT30;61204;49.980;8.358;2023-02-28T15:30:06;7.85;39.16
72277;SHT30;61204;49.980;8.358;2023-02-28T15:32:39;7.70;39.74
72277;SHT30;61204;49.980;8.358;2023-02-28T15:35:28;7.77;39.92
72277;SHT30;61204;49.980;8.358;2023-02-28T15:37:57;7.80;39.79
72277;SHT30;61204;49.980;8.358;2023-02-28T15:40:25;7.54;39.92
72277;SHT30;61204;49.980;8.358;2023-02-28T15:43:44;7.54;40.00
72277;SHT30;61204;49.980;8.358;2023-02-28T15:46:08;7.45;40.86
72277;SHT30;61204;49.980;8.358;2023-02-28T15:48:57;6.97;41.44
72277;SHT30;61204;49.980;8.358;2023-02-28T15:51:29;7.24;41.64
72277;SHT30;61204;49.980;8.358;2023-02-28T15:54:04;7.41;41.19
72277;SHT30;61204;49.980;8.358;2023-02-28T15:56:36;7.58;40.93
72277;SHT30;61204;49.980;8.358;2023-02-28T15:59:18;7.10;41.71
72277;SHT30;61204;49.980;8.358;2023-02-28T16:01:46;7.11;41.93
72277;SHT30;61204;49.980;8.358;2023-02-28T16:04:17;7.07;41.63
72277;SHT30;61204;49.980;8.358;2023-02-28T16:07:12;6.80;42.92
72277;SHT30;61204;49.980;8.358;2023-02-28T16:09:39;6.93;42.30
72277;SHT30;61204;49.980;8.358;2023-02-28T16:12:04;6.51;43.33
72277;SHT30;61204;49.980;8.358;2023-02-28T16:14:30;6.51;43.47
72277;SHT30;61204;49.980;8.358;2023-02-28T16:17:03;6.46;43.62
72277;SHT30;61204;49.980;8.358;2023-02-28T16:19:33;6.38;44.08
72277;SHT30;61204;49.980;8.358;2023-02-28T16:21:59;6.27;43.97
72277;SHT30;61204;49.980;8.358;2023-02-28T16:24:26;6.17;44.41
72277;SHT30;61204;49.980;8.358;2023-02-28T16:26:53;6.28;44.47
72277;SHT30;61204;49.980;8.358;2023-02-28T16:29:40;5.82;45.19
72277;SHT30;61204;49.980;8.358;2023-02-28T16:32:06;5.56;45.60
72277;SHT30;61204;49.980;8.358;2023-02-28T16:34:31;5.41;46.73
72277;SHT30;61204;49.980;8.358;2023-02-28T16:36:57;5.47;46.49
72277;SHT30;61204;49.980;8.358;2023-02-28T16:39:23;5.32;46.85
72277;SHT30;61204;49.980;8.358;2023-02-28T16:41:50;5.23;46.82
72277;SHT30;61204;49.980;8.358;2023-02-28T16:46:56;5.17;47.38
72277;SHT30;61204;49.980;8.358;2023-02-28T16:49:22;5.10;48.02
72277;SHT30;61204;49.980;8.358;2023-02-28T16:51:49;5.03;48.64
72277;SHT30;61204;49.980;8.358;2023-02-28T16:54:14;4.82;49.56
72277;SHT30;61204;49.980;8.358;2023-02-28T16:56:46;4.75;50.36
72277;SHT30;61204;49.980;8.358;2023-02-28T16:59:13;4.59;50.51
72277;SHT30;61204;49.980;8.358;2023-02-28T17:01:43;4.51;50.77
72277;SHT30;61204;49.980;8.358;2023-02-28T17:04:10;4.33;50.90
72277;SHT30;61204;49.980;8.358;2023-02-28T17:06:37;4.20;51.09
72277;SHT30;61204;49.980;8.358;2023-02-28T17:09:03;4.14;51.24
72277;SHT30;61204;49.980;8.358;2023-02-28T17:11:28;4.07;51.40
72277;SHT30;61204;49.980;8.358;2023-02-28T17:13:54;4.00;51.83
72277;SHT30;61204;49.980;8.358;2023-02-28T17:16:31;3.97;51.87
72277;SHT30;61204;49.980;8.358;2023-02-28T17:19:01;3.85;52.45
72277;SHT30;61204;49.980;8.358;2023-02-28T17:21:28;3.79;52.49
72277;SHT30;61204;49.980;8.358;2023-02-28T17:23:54;3.68;52.90
72277;SHT30;61204;49.980;8.358;2023-02-28T17:26:21;3.57;53.25
72277;SHT30;61204;49.980;8.358;2023-02-28T17:28:49;3.48;53.42
72277;SHT30;61204;49.980;8.358;2023-02-28T17:31:16;3.45;53.87
72277;SHT30;61204;49.980;8.358;2023-02-28T17:33:42;3.40;54.11
72277;SHT30;61204;49.980;8.358;2023-02-28T17:36:13;3.31;54.42
72277;SHT30;61204;49.980;8.358;2023-02-28T17:38:40;3.24;55.07
72277;SHT30;61204;49.980;8.358;2023-02-28T17:41:06;3.14;56.00
72277;SHT30;61204;49.980;8.358;2023-02-28T17:43:31;3.05;56.38
72277;SHT30;61204;49.980;8.358;2023-02-28T17:45:57;3.00;56.40
72277;SHT30;61204;49.980;8.358;2023-02-28T17:48:24;2.88;56.61
72277;SHT30;61204;49.980;8.358;2023-02-28T17:50:50;2.78;56.79
72277;SHT30;61204;49.980;8.358;2023-02-28T17:53:15;2.69;57.18
72277;SHT30;61204;49.980;8.358;2023-02-28T17:55:40;2.61;57.25
72277;SHT30;61204;49.980;8.358;2023-02-28T17:58:09;2.57;57.47
72277;SHT30;61204;49.980;8.358;2023-02-28T18:00:37;2.50;57.89
72277;SHT30;61204;49.980;8.358;2023-02-28T18:03:03;2.41;58.25
72277;SHT30;61204;49.980;8.358;2023-02-28T18:05:28;2.38;58.91
72277;SHT30;61204;49.980;8.358;2023-02-28T18:07:55;2.33;58.44
72277;SHT30;61204;49.980;8.358;2023-02-28T18:10:21;2.26;58.68
72277;SHT30;61204;49.980;8.358;2023-02-28T18:12:49;2.20;58.98
72277;SHT30;61204;49.980;8.358;2023-02-28T18:15:19;2.10;58.72
72277;SHT30;61204;49.980;8.358;2023-02-28T18:17:47;2.03;59.32
72277;SHT30;61204;49.980;8.358;2023-02-28T18:20:14;1.99;59.57
72277;SHT30;61204;49.980;8.358;2023-02-28T18:22:42;1.89;59.80
72277;SHT30;61204;49.980;8.358;2023-02-28T18:25:09;1.91;59.70